Lesley Pg — MXUG5 — position and weather

sailwx.info

Track history (hours):
 
Tides and Currents Weather Stations Pressure Air Temp Water Temp Dewpoint Dewpoint Depression Visibility Wind Speed Wind Dir Waves Ship Positions

Lesley Pg

Last reported at 2016-Feb-03 23:33 UTC. Time now 2016-Feb-08 08:18 UTC.
Position N 10°54' W 061°52'.

Length 102 m; draft 6.3 m.

Type: Tanker. MMSI: 234910000.

Date/timePositionNaut miles runAvg speedWind from/ knotsBaromVisibWave heightAir tempDewpointWater temp
2016-Feb-03 23:33N 10°54' W 061°52'1111.3
2016-Feb-03 22:33N 10°44' W 061°49'10 9.6
2016-Feb-03 21:33N 10°35' W 061°45'1010.0
2016-Feb-03 20:34N 10°27' W 061°38'10 9.8
2016-Feb-03 19:33N 10°21' W 061°31'2 1.5
2016-Feb-03 18:33N 10°19' W 061°30'0 0.0
2016-Feb-03 17:33N 10°19' W 061°30'0 0.0
2016-Feb-03 16:32N 10°19' W 061°30'1 0.7
2016-Feb-03 15:33N 10°19' W 061°29'1 0.0
2016-Feb-02 15:10N 10°19' W 061°29'0 0.0
2016-Feb-02 14:33N 10°19' W 061°29'0 0.0
2016-Feb-02 13:33N 10°19' W 061°29'0 0.0
2016-Feb-02 12:34N 10°19' W 061°29'1 1.5
2016-Feb-02 11:34N 10°19' W 061°30'0 0.1
2016-Feb-02 10:33N 10°19' W 061°30'8 7.9
2016-Feb-02 09:33N 10°25' W 061°36'9 9.4
2016-Feb-02 08:33N 10°32' W 061°42'9 9.0
2016-Feb-02 07:34N 10°38' W 061°48'8 7.7
2016-Feb-02 06:33N 10°46' W 061°49'6 6.5
2016-Feb-02 05:33N 10°52' W 061°51'  
2016-Jan-27 12:34N 17°09' W 061°52'1 0.6
2016-Jan-27 11:33N 17°09' W 061°53'0 0.0
2016-Jan-27 10:33N 17°09' W 061°53'0 0.0
2016-Jan-27 09:33N 17°09' W 061°53'0 0.0
2016-Jan-27 08:33N 17°09' W 061°53'0 0.0
2016-Jan-27 07:30N 17°09' W 061°53'0 0.0
2016-Jan-27 06:33N 17°09' W 061°53'0 0.0
2016-Jan-27 05:33N 17°09' W 061°53'0 0.0
2016-Jan-27 04:33N 17°09' W 061°53'0 0.0
2016-Jan-27 03:33N 17°09' W 061°53'0 0.1
2016-Jan-27 02:33N 17°09' W 061°53'6 6.0
2016-Jan-27 01:33N 17°05' W 061°57'1010.4
2016-Jan-27 00:33N 16°55' W 061°57'1010.0
2016-Jan-26 23:33N 16°45' W 061°56'1010.0
2016-Jan-26 22:33N 16°35' W 061°55'1010.3
2016-Jan-26 21:33N 16°24' W 061°55'2610.4
2016-Jan-26 19:05N 15°59' W 061°47'12 1.3
2016-Jan-26 09:19N 15°56' W 061°35'7 8.5
2016-Jan-26 08:27N 15°55' W 061°43'33 9.8
2016-Jan-26 05:06N 16°19' W 062°06'510.0
2016-Jan-26 04:33N 16°24' W 062°09'10 9.5
2016-Jan-26 03:33N 16°31' W 062°16'10 9.5
2016-Jan-26 02:33N 16°39' W 062°21'10 0.4
2016-Jan-25 04:33N 16°47' W 062°27'1110.1
2016-Jan-25 03:30N 16°38' W 062°21'1010.2
2016-Jan-25 02:34N 16°30' W 062°15'1010.0
2016-Jan-25 01:33N 16°22' W 062°08'10 9.8
2016-Jan-25 00:33N 16°14' W 062°03'  
Track history (hours):
 
Tides and Currents Weather Stations Pressure Air Temp Water Temp Dewpoint Dewpoint Depression Visibility Wind Speed Wind Dir Waves Ship Positions

Lesley Pg

Last reported at 2016-Feb-03 23:33 UTC. Time now 2016-Feb-08 08:18 UTC.
Position N 10°54' W 061°52'.

Length 102 m; draft 6.3 m.

Type: Tanker. MMSI: 234910000.

Date/timePositionNaut miles runAvg speedWind from/ knotsBaromVisibWave heightAir tempDewpointWater temp
2016-Feb-03 23:33N 10°54' W 061°52'1111.3
2016-Feb-03 22:33N 10°44' W 061°49'10 9.6
2016-Feb-03 21:33N 10°35' W 061°45'1010.0
2016-Feb-03 20:34N 10°27' W 061°38'10 9.8
2016-Feb-03 19:33N 10°21' W 061°31'2 1.5
2016-Feb-03 18:33N 10°19' W 061°30'0 0.0
2016-Feb-03 17:33N 10°19' W 061°30'0 0.0
2016-Feb-03 16:32N 10°19' W 061°30'1 0.7
2016-Feb-03 15:33N 10°19' W 061°29'1 0.0
2016-Feb-02 15:10N 10°19' W 061°29'0 0.0
2016-Feb-02 14:33N 10°19' W 061°29'0 0.0
2016-Feb-02 13:33N 10°19' W 061°29'0 0.0
2016-Feb-02 12:34N 10°19' W 061°29'1 1.5
2016-Feb-02 11:34N 10°19' W 061°30'0 0.1
2016-Feb-02 10:33N 10°19' W 061°30'8 7.9
2016-Feb-02 09:33N 10°25' W 061°36'9 9.4
2016-Feb-02 08:33N 10°32' W 061°42'9 9.0
2016-Feb-02 07:34N 10°38' W 061°48'8 7.7
2016-Feb-02 06:33N 10°46' W 061°49'6 6.5
2016-Feb-02 05:33N 10°52' W 061°51'  
2016-Jan-27 12:34N 17°09' W 061°52'1 0.6
2016-Jan-27 11:33N 17°09' W 061°53'0 0.0
2016-Jan-27 10:33N 17°09' W 061°53'0 0.0
2016-Jan-27 09:33N 17°09' W 061°53'0 0.0
2016-Jan-27 08:33N 17°09' W 061°53'0 0.0
2016-Jan-27 07:30N 17°09' W 061°53'0 0.0
2016-Jan-27 06:33N 17°09' W 061°53'0 0.0
2016-Jan-27 05:33N 17°09' W 061°53'0 0.0
2016-Jan-27 04:33N 17°09' W 061°53'0 0.0
2016-Jan-27 03:33N 17°09' W 061°53'0 0.1
2016-Jan-27 02:33N 17°09' W 061°53'6 6.0
2016-Jan-27 01:33N 17°05' W 061°57'1010.4
2016-Jan-27 00:33N 16°55' W 061°57'1010.0
2016-Jan-26 23:33N 16°45' W 061°56'1010.0
2016-Jan-26 22:33N 16°35' W 061°55'1010.3
2016-Jan-26 21:33N 16°24' W 061°55'2610.4
2016-Jan-26 19:05N 15°59' W 061°47'12 1.3
2016-Jan-26 09:19N 15°56' W 061°35'7 8.5
2016-Jan-26 08:27N 15°55' W 061°43'33 9.8
2016-Jan-26 05:06N 16°19' W 062°06'510.0
2016-Jan-26 04:33N 16°24' W 062°09'10 9.5
2016-Jan-26 03:33N 16°31' W 062°16'10 9.5
2016-Jan-26 02:33N 16°39' W 062°21'10 0.4
2016-Jan-25 04:33N 16°47' W 062°27'1110.1
2016-Jan-25 03:30N 16°38' W 062°21'1010.2
2016-Jan-25 02:34N 16°30' W 062°15'1010.0
2016-Jan-25 01:33N 16°22' W 062°08'10 9.8
2016-Jan-25 00:33N 16°14' W 062°03'  

Dump ship's entire track history